Time;durP1;ratioP1;P1;durP2;ratioP2;P2;SDS_P1;SDS_P2;PMS_P1;PMS_P2;Temp;Humidity;BMP_temperature;BMP_pressure;BME280_temperature;BME280_humidity;BME280_pressure;Samples;Min_cycle;Max_cycle;Signal;HPM_P1;HPM_P2
2022/03/20 00:00:40;;;;;;;61.03;30.05;;;3.10;66.00;;;;;;2053935;28;20039;-71
2022/03/20 00:01:40;;;;;;;55.92;27.83;;;3.10;65.90;;;;;;2054764;28;20026;-71
2022/03/20 00:02:42;;;;;;;53.17;27.65;;;3.10;65.90;;;;;;2053833;28;20019;-71
2022/03/20 00:03:43;;;;;;;54.67;27.67;;;3.10;65.90;;;;;;2054517;28;20035;-70
2022/03/20 00:04:43;;;;;;;52.17;27.25;;;3.10;66.00;;;;;;2054836;28;20043;-71
2022/03/20 00:05:47;;;;;;;55.53;28.75;;;3.10;66.10;;;;;;2055030;28;20035;-71
2022/03/20 00:06:47;;;;;;;51.88;27.58;;;3.00;66.20;;;;;;2054870;28;20046;-71
2022/03/20 00:07:48;;;;;;;47.25;26.17;;;3.00;66.20;;;;;;2053943;28;20074;-71
2022/03/20 00:08:52;;;;;;;47.10;26.23;;;3.00;66.10;;;;;;2054001;28;20122;-71
2022/03/20 00:09:52;;;;;;;49.33;26.88;;;3.10;66.10;;;;;;2053737;28;20039;-71
2022/03/20 00:10:57;;;;;;;48.75;26.05;;;3.00;66.10;;;;;;2056046;28;20519;-71
2022/03/20 00:11:58;;;;;;;45.08;25.35;;;3.00;66.30;;;;;;2057125;28;20023;-71
2022/03/20 00:12:59;;;;;;;43.40;25.08;;;3.00;66.90;;;;;;2056500;28;20019;-71
2022/03/20 00:13:59;;;;;;;45.50;25.75;;;2.90;67.00;;;;;;2054392;28;20491;-71
2022/03/20 00:15:00;;;;;;;44.67;25.52;;;2.90;67.00;;;;;;2055401;28;20518;-71
2022/03/20 00:16:01;;;;;;;49.67;26.27;;;2.90;66.90;;;;;;2055462;28;20023;-71
2022/03/20 00:17:02;;;;;;;49.60;26.33;;;2.90;66.90;;;;;;2055081;28;20117;-70
2022/03/20 00:18:03;;;;;;;47.55;25.88;;;2.90;67.00;;;;;;2054832;28;20437;-70
2022/03/20 00:19:05;;;;;;;45.53;25.05;;;2.80;67.00;;;;;;2062868;28;20417;-71
2022/03/20 00:20:07;;;;;;;44.95;24.98;;;2.80;67.30;;;;;;2054753;28;20065;-71
2022/03/20 00:21:10;;;;;;;45.40;25.20;;;2.80;67.40;;;;;;2054752;28;20043;-70
2022/03/20 00:22:11;;;;;;;41.25;24.65;;;2.80;67.60;;;;;;2055003;28;20066;-70
2022/03/20 00:23:12;;;;;;;42.78;25.00;;;2.70;67.90;;;;;;2054891;28;20045;-70
2022/03/20 00:24:13;;;;;;;44.05;24.65;;;2.80;68.30;;;;;;2055549;28;20091;-70
2022/03/20 00:25:13;;;;;;;44.13;25.63;;;2.70;68.10;;;;;;2054465;28;20100;-69
2022/03/20 00:26:17;;;;;;;48.88;26.52;;;2.70;68.00;;;;;;2054851;28;20030;-69
2022/03/20 00:27:19;;;;;;;49.08;25.85;;;2.70;67.90;;;;;;2057032;28;20015;-70
2022/03/20 00:28:23;;;;;;;46.25;25.08;;;2.80;67.90;;;;;;2055752;28;20053;-70
2022/03/20 00:29:25;;;;;;;47.08;25.27;;;2.80;68.00;;;;;;2056591;28;20031;-70
2022/03/20 00:30:26;;;;;;;53.08;26.30;;;2.70;68.00;;;;;;2055668;28;20031;-70
2022/03/20 00:31:32;;;;;;;52.90;26.90;;;2.80;67.90;;;;;;2054762;28;20557;-70
2022/03/20 00:32:32;;;;;;;54.83;27.13;;;2.70;67.80;;;;;;2055067;28;20042;-70
2022/03/20 00:33:34;;;;;;;50.22;26.80;;;2.80;67.70;;;;;;2055840;28;20062;-70
2022/03/20 00:34:35;;;;;;;48.40;26.42;;;2.80;67.60;;;;;;2062738;28;20117;-70
2022/03/20 00:35:37;;;;;;;46.10;25.55;;;2.80;67.50;;;;;;2054986;28;20505;-71
2022/03/20 00:36:38;;;;;;;48.85;26.05;;;2.80;67.50;;;;;;2054802;28;20340;-71
2022/03/20 00:37:38;;;;;;;47.60;26.13;;;2.80;67.50;;;;;;2054692;28;20070;-71
2022/03/20 00:38:39;;;;;;;40.50;24.23;;;2.80;67.90;;;;;;2062817;28;20062;-70
2022/03/20 00:39:40;;;;;;;44.38;24.80;;;2.80;68.40;;;;;;2055215;28;20313;-70
2022/03/20 00:40:40;;;;;;;46.25;26.17;;;2.70;68.20;;;;;;2054769;28;20145;-71
2022/03/20 00:41:42;;;;;;;46.05;24.80;;;2.70;67.90;;;;;;2054956;28;20452;-71
2022/03/20 00:42:42;;;;;;;45.80;24.27;;;2.70;67.80;;;;;;2054691;28;20123;-71
2022/03/20 00:43:43;;;;;;;47.78;25.05;;;2.70;67.80;;;;;;2054962;28;20100;-70
2022/03/20 00:44:43;;;;;;;44.35;25.10;;;2.70;67.70;;;;;;2055153;28;20039;-70
2022/03/20 00:45:44;;;;;;;46.33;25.00;;;2.70;67.60;;;;;;2055959;28;20031;-71
2022/03/20 00:46:45;;;;;;;46.30;24.95;;;2.70;67.70;;;;;;2062904;28;20080;-71
2022/03/20 00:47:46;;;;;;;48.50;24.92;;;2.70;67.90;;;;;;2063268;28;20034;-71
2022/03/20 00:48:46;;;;;;;48.17;25.88;;;2.70;67.80;;;;;;2055480;28;20390;-70
2022/03/20 00:49:47;;;;;;;46.25;25.45;;;2.70;67.80;;;;;;2055768;28;20123;-71
2022/03/20 00:50:48;;;;;;;47.25;25.75;;;2.70;67.80;;;;;;2055805;28;20457;-71
2022/03/20 00:51:48;;;;;;;50.38;24.98;;;2.70;67.80;;;;;;2055405;28;20525;-71
2022/03/20 00:52:49;;;;;;;47.03;25.50;;;2.70;67.80;;;;;;2055414;28;20022;-71
2022/03/20 00:53:49;;;;;;;45.88;24.90;;;2.70;67.70;;;;;;2055187;28;20100;-71
2022/03/20 00:54:50;;;;;;;45.45;24.25;;;2.70;67.60;;;;;;2054904;28;20065;-71
2022/03/20 00:55:51;;;;;;;42.35;24.55;;;2.60;68.10;;;;;;2055589;28;20055;-71
2022/03/20 00:56:52;;;;;;;46.72;25.80;;;2.60;68.30;;;;;;2055416;28;20042;-71
2022/03/20 00:57:53;;;;;;;50.28;27.15;;;2.60;68.30;;;;;;2055612;28;20023;-70
2022/03/20 00:58:53;;;;;;;49.42;25.95;;;2.60;68.30;;;;;;2055372;28;20030;-71
2022/03/20 00:59:54;;;;;;;45.85;25.73;;;2.60;68.50;;;;;;2055209;28;20199;-71
2022/03/20 01:00:54;;;;;;;43.20;24.33;;;2.60;68.40;;;;;;2062491;28;20034;-71
2022/03/20 01:01:55;;;;;;;43.78;25.08;;;2.60;68.60;;;;;;2062400;28;20413;-70
2022/03/20 01:02:56;;;;;;;45.28;24.88;;;2.50;68.60;;;;;;2054643;28;20489;-70
2022/03/20 01:03:56;;;;;;;43.45;25.63;;;2.50;69.00;;;;;;2054751;28;20019;-70
2022/03/20 01:04:57;;;;;;;43.95;25.52;;;2.50;69.40;;;;;;2054991;28;20038;-70
2022/03/20 01:05:57;;;;;;;42.33;24.77;;;2.50;69.50;;;;;;2055161;28;20055;-70
2022/03/20 01:07:00;;;;;;;41.03;24.08;;;2.40;69.50;;;;;;2055402;28;20046;-70
2022/03/20 01:08:01;;;;;;;41.25;24.23;;;2.40;69.80;;;;;;2055363;28;20114;-71
2022/03/20 01:09:02;;;;;;;40.65;24.15;;;2.40;69.90;;;;;;2055091;28;20063;-70
2022/03/20 01:10:04;;;;;;;40.42;24.00;;;2.30;70.10;;;;;;2055089;28;20118;-70
2022/03/20 01:11:07;;;;;;;41.38;24.02;;;2.30;70.20;;;;;;2055415;28;20041;-70
2022/03/20 01:12:08;;;;;;;39.35;23.48;;;2.30;70.30;;;;;;2055217;28;20058;-69
2022/03/20 01:13:09;;;;;;;40.90;24.48;;;2.30;70.70;;;;;;2055334;28;20034;-70
2022/03/20 01:14:11;;;;;;;41.78;24.17;;;2.30;70.90;;;;;;2055482;28;20525;-70
2022/03/20 01:15:13;;;;;;;41.17;24.00;;;2.30;71.10;;;;;;2055157;28;20485;-70
2022/03/20 01:16:13;;;;;;;39.95;23.42;;;2.30;71.00;;;;;;2055290;28;20552;-70
2022/03/20 01:17:14;;;;;;;40.45;24.38;;;2.20;71.20;;;;;;2062498;28;20026;-70
2022/03/20 01:18:15;;;;;;;39.08;23.73;;;2.20;71.40;;;;;;2062597;28;20027;-70
2022/03/20 01:19:15;;;;;;;38.53;23.40;;;2.20;71.60;;;;;;2054452;28;20035;-70
2022/03/20 01:20:16;;;;;;;37.22;23.20;;;2.20;72.00;;;;;;2054458;28;20054;-71
2022/03/20 01:21:17;;;;;;;37.60;23.38;;;2.20;72.30;;;;;;2055094;28;20080;-70
2022/03/20 01:22:18;;;;;;;38.50;22.73;;;2.20;72.10;;;;;;2055226;28;20033;-71
2022/03/20 01:23:22;;;;;;;35.10;22.25;;;2.10;72.20;;;;;;2054957;28;20022;-70
2022/03/20 01:24:24;;;;;;;39.33;22.67;;;2.10;72.40;;;;;;2054513;28;20023;-70
2022/03/20 01:25:24;;;;;;;37.95;22.95;;;2.10;72.90;;;;;;2054164;28;20102;-69
2022/03/20 01:26:25;;;;;;;40.65;23.30;;;2.10;73.40;;;;;;2061631;28;20370;-70
2022/03/20 01:27:25;;;;;;;37.83;23.10;;;2.10;73.10;;;;;;2054527;28;20023;-70
2022/03/20 01:28:26;;;;;;;36.00;22.98;;;2.10;73.10;;;;;;2054550;28;20030;-70
2022/03/20 01:29:27;;;;;;;38.28;23.55;;;2.10;73.10;;;;;;2054476;28;20114;-71
2022/03/20 01:30:28;;;;;;;42.95;23.83;;;2.10;73.50;;;;;;2054367;28;20486;-72
2022/03/20 01:31:29;;;;;;;42.90;24.50;;;2.10;74.10;;;;;;2054476;28;20062;-71
2022/03/20 01:32:30;;;;;;;38.15;23.73;;;2.10;74.30;;;;;;2054500;28;20172;-71
2022/03/20 01:33:30;;;;;;;39.10;24.15;;;2.10;75.10;;;;;;2054923;28;20039;-71
2022/03/20 01:34:31;;;;;;;38.13;23.95;;;2.10;76.20;;;;;;2054929;28;20485;-72
2022/03/20 01:35:32;;;;;;;39.70;23.88;;;2.10;76.70;;;;;;2054623;28;20456;-71
2022/03/20 01:36:33;;;;;;;40.55;24.42;;;2.00;77.60;;;;;;2054357;28;20041;-71
2022/03/20 01:37:34;;;;;;;38.85;23.15;;;2.00;77.70;;;;;;2054306;28;20494;-71
2022/03/20 01:38:35;;;;;;;37.80;23.20;;;2.00;78.10;;;;;;2054798;28;20030;-71
2022/03/20 01:39:36;;;;;;;36.97;22.48;;;2.00;78.20;;;;;;2054869;28;20132;-71
2022/03/20 01:40:36;;;;;;;36.65;22.60;;;2.00;77.40;;;;;;2055049;28;20037;-71
2022/03/20 01:41:38;;;;;;;38.97;23.90;;;1.90;77.70;;;;;;2055316;28;20031;-71
2022/03/20 01:42:39;;;;;;;37.38;22.95;;;1.90;77.50;;;;;;2054655;28;20100;-71
2022/03/20 01:43:49;;;;;;;40.25;23.08;;;1.90;77.10;;;;;;2054579;28;20042;-71
2022/03/20 01:44:50;;;;;;;41.30;23.88;;;1.90;76.90;;;;;;2054043;28;20023;-71
2022/03/20 01:45:50;;;;;;;41.45;23.23;;;1.90;77.20;;;;;;2054323;28;20128;-71
2022/03/20 01:46:51;;;;;;;38.17;22.83;;;1.90;77.10;;;;;;2054092;28;20076;-71
2022/03/20 01:47:53;;;;;;;50.92;25.75;;;1.90;77.20;;;;;;2054361;28;20549;-71
2022/03/20 01:48:54;;;;;;;49.97;26.35;;;1.90;76.40;;;;;;2054169;28;20042;-69
2022/03/20 01:49:55;;;;;;;60.33;27.48;;;1.90;76.40;;;;;;2054045;28;20030;-71
2022/03/20 01:50:56;;;;;;;54.67;27.05;;;1.90;76.30;;;;;;2054031;28;20149;-70
2022/03/20 01:52:13;;;;;;;48.80;25.77;;;1.90;76.40;;;;;;2054798;28;20346;-71
2022/03/20 01:53:17;;;;;;;50.75;25.10;;;1.90;76.40;;;;;;2054427;28;20034;-70
2022/03/20 01:54:18;;;;;;;47.28;24.67;;;1.90;77.60;;;;;;2054146;28;20027;-71
2022/03/20 01:55:20;;;;;;;45.00;24.52;;;1.90;77.60;;;;;;2054001;28;20042;-71
2022/03/20 01:56:22;;;;;;;44.95;24.92;;;1.90;77.10;;;;;;2062029;28;20034;-71
2022/03/20 01:57:23;;;;;;;44.15;24.17;;;1.90;77.40;;;;;;2055079;28;20027;-72
2022/03/20 01:58:24;;;;;;;43.35;24.73;;;1.90;77.10;;;;;;2054987;28;20027;-71
2022/03/20 01:59:24;;;;;;;46.47;25.30;;;1.90;77.00;;;;;;2054861;28;20044;-71
2022/03/20 02:00:27;;;;;;;42.47;24.63;;;1.90;77.30;;;;;;2054699;28;20103;-70
2022/03/20 02:01:28;;;;;;;43.15;24.92;;;1.90;77.50;;;;;;2055045;28;20034;-70
2022/03/20 02:02:29;;;;;;;42.90;24.50;;;1.90;77.50;;;;;;2054931;28;20014;-70
2022/03/20 02:03:30;;;;;;;45.08;25.00;;;1.90;77.30;;;;;;2054737;28;20031;-71
2022/03/20 02:04:34;;;;;;;43.05;24.25;;;1.90;77.20;;;;;;2054173;28;20038;-71
2022/03/20 02:05:35;;;;;;;47.25;25.05;;;1.90;77.20;;;;;;2054270;28;20062;-71
2022/03/20 02:06:36;;;;;;;47.10;25.45;;;1.90;76.70;;;;;;2054407;28;20556;-71
2022/03/20 02:07:38;;;;;;;46.65;25.35;;;1.90;76.40;;;;;;2054247;28;20062;-69
2022/03/20 02:08:39;;;;;;;40.47;24.35;;;1.90;76.60;;;;;;2054096;28;20136;-70
2022/03/20 02:09:41;;;;;;;44.67;25.02;;;1.90;76.60;;;;;;2054217;28;20035;-69
2022/03/20 02:10:43;;;;;;;44.30;24.45;;;1.90;76.50;;;;;;2054150;28;20049;-69
2022/03/20 02:11:47;;;;;;;44.15;25.40;;;1.90;76.60;;;;;;2054014;28;20124;-70
2022/03/20 02:12:48;;;;;;;43.95;24.00;;;1.80;76.70;;;;;;2054242;28;20027;-69
2022/03/20 02:13:51;;;;;;;42.20;23.33;;;1.90;77.00;;;;;;2055205;28;20023;-70
2022/03/20 02:14:52;;;;;;;40.38;23.85;;;1.80;77.20;;;;;;2054771;28;20034;-70
2022/03/20 02:15:53;;;;;;;45.70;24.58;;;1.80;77.20;;;;;;2055131;28;20027;-70
2022/03/20 02:16:55;;;;;;;49.03;26.73;;;1.80;77.20;;;;;;2054360;28;20072;-70
2022/03/20 02:17:56;;;;;;;48.15;25.95;;;1.80;77.40;;;;;;2054207;28;20105;-70
2022/03/20 02:18:58;;;;;;;48.65;26.17;;;1.80;77.60;;;;;;2054218;28;20030;-70
2022/03/20 02:20:03;;;;;;;50.08;26.27;;;1.80;77.20;;;;;;2054032;28;20023;-69
2022/03/20 02:21:03;;;;;;;48.58;25.27;;;1.80;77.60;;;;;;2054291;28;20043;-69
2022/03/20 02:22:04;;;;;;;47.72;25.23;;;1.80;77.50;;;;;;2054071;28;20027;-69
2022/03/20 02:23:06;;;;;;;50.47;25.67;;;1.80;77.00;;;;;;2054927;28;20406;-69
2022/03/20 02:24:27;;;;;;;48.28;25.65;;;1.80;76.40;;;;;;2054157;28;20033;-70
2022/03/20 02:25:29;;;;;;;42.03;24.00;;;1.80;76.40;;;;;;2054060;28;20455;-69
2022/03/20 02:26:31;;;;;;;43.85;24.52;;;1.80;76.10;;;;;;2054368;28;20030;-70
2022/03/20 02:27:32;;;;;;;47.15;24.33;;;1.80;76.00;;;;;;2054248;28;20023;-69
2022/03/20 02:28:32;;;;;;;43.03;23.42;;;1.80;76.50;;;;;;2054243;28;20428;-70
2022/03/20 02:29:33;;;;;;;45.22;24.50;;;1.80;76.70;;;;;;2053707;28;20027;-70
2022/03/20 02:30:33;;;;;;;45.67;24.05;;;1.80;76.80;;;;;;2053932;28;20353;-70
2022/03/20 02:31:34;;;;;;;44.58;24.05;;;1.80;78.00;;;;;;2054687;28;20034;-71
2022/03/20 02:32:35;;;;;;;42.30;23.48;;;1.80;77.50;;;;;;2054792;28;20026;-70
2022/03/20 02:33:36;;;;;;;45.08;23.95;;;1.80;78.50;;;;;;2054630;28;20334;-70
2022/03/20 02:34:37;;;;;;;45.58;24.98;;;1.80;77.60;;;;;;2061872;28;20632;-69
2022/03/20 02:35:39;;;;;;;43.70;24.55;;;1.80;79.30;;;;;;2062055;28;20054;-70
2022/03/20 02:36:39;;;;;;;43.25;24.08;;;1.70;79.70;;;;;;2061942;28;20442;-70
2022/03/20 02:37:43;;;;;;;42.55;23.08;;;1.70;79.30;;;;;;2053860;28;20034;-70
2022/03/20 02:38:46;;;;;;;43.30;23.83;;;1.70;79.60;;;;;;2054217;28;20039;-69
2022/03/20 02:39:47;;;;;;;43.55;23.67;;;1.70;79.80;;;;;;2053944;28;20070;-70
2022/03/20 02:40:51;;;;;;;45.05;22.83;;;1.70;80.80;;;;;;2054032;28;20149;-70
2022/03/20 02:41:54;;;;;;;40.08;23.02;;;1.70;80.90;;;;;;2054375;28;20418;-70
2022/03/20 02:42:55;;;;;;;38.20;22.45;;;1.60;81.50;;;;;;2054916;28;20031;-70
2022/03/20 02:43:57;;;;;;;42.88;23.65;;;1.60;81.00;;;;;;2061980;28;20022;-70
2022/03/20 02:45:04;;;;;;;40.38;23.00;;;1.60;80.20;;;;;;2061793;28;20026;-70
2022/03/20 02:46:05;;;;;;;36.88;22.25;;;1.60;80.50;;;;;;2054681;28;20027;-70
2022/03/20 02:47:07;;;;;;;40.67;24.45;;;1.60;80.50;;;;;;2061779;28;20455;-70
2022/03/20 02:48:08;;;;;;;40.08;23.40;;;1.60;79.40;;;;;;2061957;28;20132;-70
2022/03/20 02:49:09;;;;;;;39.17;23.13;;;1.60;79.20;;;;;;2053883;28;20023;-70
2022/03/20 02:50:19;;;;;;;38.78;22.60;;;1.60;78.90;;;;;;2053744;28;20056;-70
2022/03/20 02:51:21;;;;;;;39.50;22.80;;;1.60;79.20;;;;;;2054669;28;20057;-70
2022/03/20 02:52:29;;;;;;;39.75;23.30;;;1.60;79.90;;;;;;2062159;28;20033;-71
2022/03/20 02:53:29;;;;;;;38.55;23.17;;;1.60;79.40;;;;;;2054245;28;20030;-70
2022/03/20 02:54:31;;;;;;;40.40;23.20;;;1.60;79.10;;;;;;2045884;28;20386;-70
2022/03/20 02:55:35;;;;;;;39.58;23.10;;;1.60;79.00;;;;;;2053862;28;20122;-70
2022/03/20 02:56:36;;;;;;;38.78;22.75;;;1.60;79.50;;;;;;2061889;28;20470;-70
2022/03/20 02:57:36;;;;;;;37.47;22.83;;;1.60;79.80;;;;;;2054809;28;20042;-69
2022/03/20 02:58:37;;;;;;;39.03;23.08;;;1.60;79.40;;;;;;2054718;28;20102;-70
2022/03/20 02:59:38;;;;;;;37.20;21.95;;;1.60;80.30;;;;;;2054354;28;20112;-69
2022/03/20 03:00:40;;;;;;;38.25;22.45;;;1.60;79.80;;;;;;2054472;28;20027;-70
2022/03/20 03:01:40;;;;;;;38.92;22.52;;;1.60;79.60;;;;;;2054327;28;20535;-70
2022/03/20 03:02:45;;;;;;;40.55;23.17;;;1.50;79.00;;;;;;2054526;28;20112;-69
2022/03/20 03:03:45;;;;;;;40.92;23.20;;;1.50;78.70;;;;;;2054515;28;20030;-69
2022/03/20 03:04:46;;;;;;;37.10;22.17;;;1.60;79.20;;;;;;2054064;28;20375;-69
2022/03/20 03:05:47;;;;;;;37.38;21.52;;;1.60;79.30;;;;;;2054456;28;20114;-69
2022/03/20 03:06:48;;;;;;;37.38;21.83;;;1.60;79.50;;;;;;2054449;28;20027;-69
2022/03/20 03:11:48;;;;;;;36.97;21.42;;;1.50;81.00;;;;;;2053846;28;20479;-69
2022/03/20 03:12:49;;;;;;;34.90;20.75;;;1.50;81.60;;;;;;2045886;29;20035;-69
2022/03/20 03:13:50;;;;;;;37.75;21.20;;;1.50;82.10;;;;;;2054078;28;20117;-69
2022/03/20 03:16:11;;;;;;;34.60;20.30;;;1.50;81.60;;;;;;2054621;28;20084;-70
2022/03/20 03:17:12;;;;;;;37.35;20.92;;;1.50;81.10;;;;;;2053821;28;20114;-69
2022/03/20 03:18:13;;;;;;;35.00;20.40;;;1.50;81.90;;;;;;2053709;28;20190;-70
2022/03/20 03:19:14;;;;;;;34.15;20.33;;;1.40;81.90;;;;;;2053670;28;20077;-69
2022/03/20 03:20:19;;;;;;;36.38;22.00;;;1.40;81.40;;;;;;2053397;28;20114;-71
2022/03/20 03:21:20;;;;;;;36.33;20.90;;;1.40;80.60;;;;;;2054172;28;20091;-69
2022/03/20 03:22:21;;;;;;;34.17;20.55;;;1.40;80.30;;;;;;2053888;28;20442;-70
2022/03/20 03:23:24;;;;;;;36.70;21.80;;;1.40;80.40;;;;;;2054201;28;20015;-70
2022/03/20 03:24:25;;;;;;;34.10;20.80;;;1.40;80.60;;;;;;2054491;28;20576;-71
2022/03/20 03:25:26;;;;;;;34.05;20.25;;;1.40;80.90;;;;;;2054121;28;20022;-70
2022/03/20 03:26:27;;;;;;;35.20;20.25;;;1.40;81.30;;;;;;2053722;28;20026;-70
2022/03/20 03:27:27;;;;;;;34.67;20.85;;;1.40;81.60;;;;;;2053664;28;20507;-69
2022/03/20 03:28:34;;;;;;;32.97;20.70;;;1.40;81.60;;;;;;2054237;28;20076;-71
2022/03/20 03:29:34;;;;;;;35.53;21.20;;;1.40;82.10;;;;;;2053786;28;20027;-70
2022/03/20 03:30:36;;;;;;;36.70;21.80;;;1.40;81.40;;;;;;2053627;28;20034;-69
2022/03/20 03:31:36;;;;;;;38.05;22.20;;;1.40;81.30;;;;;;2054069;28;20049;-70
2022/03/20 03:32:37;;;;;;;37.25;22.08;;;1.40;80.70;;;;;;2061749;28;20481;-70
2022/03/20 03:35:41;;;;;;;39.90;23.98;;;1.40;80.50;;;;;;2053559;28;20038;-70
2022/03/20 03:36:20;;;;;;;39.17;22.70;;;1.40;78.80;;;;;;2054412;28;20038;-69
2022/03/20 03:37:22;;;;;;;37.75;22.65;;;1.40;78.80;;;;;;2054498;28;20026;-70
2022/03/20 03:38:30;;;;;;;41.75;23.13;;;1.40;78.20;;;;;;2054166;28;20027;-72
2022/03/20 03:39:30;;;;;;;38.97;22.73;;;1.40;77.80;;;;;;2053584;28;20022;-69
2022/03/20 03:40:31;;;;;;;35.55;22.02;;;1.40;77.70;;;;;;2053359;28;20559;-70
2022/03/20 03:41:32;;;;;;;37.88;22.70;;;1.40;77.70;;;;;;2054200;28;20031;-70
2022/03/20 03:42:33;;;;;;;37.72;23.10;;;1.40;77.60;;;;;;2053411;28;20023;-69
2022/03/20 03:43:33;;;;;;;38.42;22.63;;;1.40;77.40;;;;;;2053492;28;20114;-69
2022/03/20 03:44:34;;;;;;;41.10;22.88;;;1.40;77.10;;;;;;2053757;28;20108;-68
2022/03/20 03:45:35;;;;;;;37.50;21.98;;;1.50;76.90;;;;;;2053435;28;20448;-69
2022/03/20 03:46:35;;;;;;;36.92;22.02;;;1.40;76.60;;;;;;2053304;28;20042;-70
2022/03/20 03:47:36;;;;;;;38.42;22.00;;;1.50;76.70;;;;;;2061871;28;20048;-70
2022/03/20 03:48:37;;;;;;;36.10;21.75;;;1.50;77.10;;;;;;2054285;28;20039;-70
2022/03/20 03:49:38;;;;;;;35.92;21.40;;;1.50;77.80;;;;;;2054915;28;20459;-69
2022/03/20 03:50:40;;;;;;;38.75;22.20;;;1.50;77.90;;;;;;2055708;28;20041;-70
2022/03/20 03:51:42;;;;;;;36.40;20.92;;;1.50;78.10;;;;;;2055684;28;20035;-70
2022/03/20 03:52:42;;;;;;;35.53;21.25;;;1.50;78.20;;;;;;2055038;28;20029;-69
2022/03/20 03:53:43;;;;;;;38.28;21.77;;;1.50;78.00;;;;;;2055090;28;20030;-69
2022/03/20 03:54:43;;;;;;;36.33;21.00;;;1.40;78.70;;;;;;2054813;28;20535;-70
2022/03/20 03:55:44;;;;;;;35.15;19.40;;;1.40;79.50;;;;;;2055978;28;20031;-69
2022/03/20 03:56:46;;;;;;;35.30;19.73;;;1.40;79.30;;;;;;2055783;28;20383;-70
2022/03/20 03:57:51;;;;;;;34.45;19.90;;;1.40;79.20;;;;;;2055744;28;20041;-70
2022/03/20 03:58:51;;;;;;;36.50;20.73;;;1.40;79.40;;;;;;2055476;28;20053;-71
2022/03/20 03:59:52;;;;;;;39.05;22.73;;;1.40;79.20;;;;;;2054905;28;20031;-70
2022/03/20 04:00:52;;;;;;;37.67;21.80;;;1.40;79.20;;;;;;2054926;28;20077;-69
2022/03/20 04:01:55;;;;;;;38.03;22.35;;;1.40;79.20;;;;;;2054891;28;20031;-69
2022/03/20 04:02:55;;;;;;;39.08;22.27;;;1.30;79.20;;;;;;2054751;28;20030;-70
2022/03/20 04:03:56;;;;;;;40.33;23.33;;;1.40;79.00;;;;;;2054852;28;20432;-70
2022/03/20 04:04:57;;;;;;;38.70;22.40;;;1.40;78.80;;;;;;2054590;28;20033;-69
2022/03/20 04:06:04;;;;;;;40.08;22.10;;;1.40;78.90;;;;;;2054957;28;20033;-70
2022/03/20 04:07:05;;;;;;;36.17;22.13;;;1.40;77.90;;;;;;2054859;28;20110;-70
2022/03/20 04:08:07;;;;;;;37.22;22.40;;;1.40;77.20;;;;;;2055037;28;20022;-69
2022/03/20 04:09:08;;;;;;;40.40;22.90;;;1.40;77.00;;;;;;2054807;28;20031;-70
2022/03/20 04:10:09;;;;;;;37.95;22.67;;;1.40;77.30;;;;;;2054753;28;20075;-70
2022/03/20 04:11:10;;;;;;;38.42;21.70;;;1.40;77.30;;;;;;2054828;28;20039;-70
2022/03/20 04:12:13;;;;;;;34.97;21.17;;;1.40;77.00;;;;;;2054800;28;20034;-71
2022/03/20 04:13:14;;;;;;;34.15;20.40;;;1.40;77.00;;;;;;2055075;28;20035;-70
2022/03/20 04:14:16;;;;;;;35.72;20.48;;;1.40;77.50;;;;;;2055697;28;20096;-70
2022/03/20 04:15:23;;;;;;;36.97;21.42;;;1.40;77.40;;;;;;2055368;28;20042;-71
2022/03/20 04:16:24;;;;;;;39.30;21.73;;;1.40;77.10;;;;;;2055557;28;20684;-71
2022/03/20 04:17:24;;;;;;;39.35;21.48;;;1.40;77.40;;;;;;2055601;28;20132;-70
2022/03/20 04:18:25;;;;;;;36.40;21.23;;;1.40;78.20;;;;;;2054965;28;20030;-71
2022/03/20 04:19:25;;;;;;;38.00;21.23;;;1.40;77.60;;;;;;2054653;28;20204;-72
2022/03/20 04:20:26;;;;;;;35.33;20.15;;;1.40;77.70;;;;;;2062327;28;20026;-73
2022/03/20 04:21:27;;;;;;;33.92;20.15;;;1.30;77.70;;;;;;2064656;28;20034;-72
2022/03/20 04:22:28;;;;;;;35.55;20.30;;;1.30;78.20;;;;;;2064640;28;20031;-72
2022/03/20 04:23:49;;;;;;;36.63;20.65;;;1.30;78.20;;;;;;2064677;28;20046;-72
2022/03/20 04:24:50;;;;;;;35.55;20.30;;;1.30;78.50;;;;;;2064730;28;20087;-72
2022/03/20 04:25:50;;;;;;;36.45;20.95;;;1.30;78.90;;;;;;2064559;28;20037;-72
2022/03/20 04:26:52;;;;;;;35.17;19.67;;;1.30;79.40;;;;;;2071887;28;20054;-72
2022/03/20 04:27:56;;;;;;;34.22;19.52;;;1.30;79.60;;;;;;2064096;28;20082;-72
2022/03/20 04:28:56;;;;;;;34.95;20.25;;;1.30;79.30;;;;;;2064075;28;20069;-72
2022/03/20 04:29:57;;;;;;;32.55;18.83;;;1.30;79.20;;;;;;2063333;28;20055;-73
2022/03/20 04:30:58;;;;;;;33.35;19.58;;;1.30;79.40;;;;;;2062249;28;20054;-71
2022/03/20 04:31:58;;;;;;;34.67;20.17;;;1.20;79.40;;;;;;2055937;28;20489;-71
2022/03/20 04:33:00;;;;;;;33.22;18.85;;;1.20;80.50;;;;;;2055236;28;20026;-71
2022/03/20 04:34:01;;;;;;;33.78;19.77;;;1.20;81.40;;;;;;2056058;28;20037;-71
2022/03/20 04:35:02;;;;;;;32.65;19.40;;;1.20;81.80;;;;;;2057064;28;20054;-70
2022/03/20 04:36:03;;;;;;;31.88;19.63;;;1.20;81.50;;;;;;2059417;28;20030;-71
2022/03/20 04:37:05;;;;;;;35.45;20.13;;;1.20;81.00;;;;;;2057666;28;20035;-71
2022/03/20 04:38:06;;;;;;;33.05;20.15;;;1.20;80.10;;;;;;2054896;28;20027;-70
2022/03/20 04:39:07;;;;;;;32.05;19.08;;;1.20;80.00;;;;;;2054830;28;20031;-70
2022/03/20 04:40:08;;;;;;;32.90;19.60;;;1.20;80.10;;;;;;2055511;28;20043;-70
2022/03/20 04:41:09;;;;;;;33.15;19.45;;;1.20;80.10;;;;;;2054927;28;20054;-70
2022/03/20 04:42:10;;;;;;;33.42;19.92;;;1.20;80.30;;;;;;2055187;28;20469;-72
2022/03/20 04:43:10;;;;;;;36.00;19.70;;;1.20;79.90;;;;;;2062859;28;20116;-71
2022/03/20 04:44:12;;;;;;;33.60;19.80;;;1.20;79.80;;;;;;2062969;28;20029;-70
2022/03/20 04:45:13;;;;;;;32.58;19.48;;;1.20;79.90;;;;;;2055336;28;20118;-70
2022/03/20 04:46:14;;;;;;;35.03;19.92;;;1.20;79.60;;;;;;2054896;28;20480;-71
2022/03/20 04:59:12;;;;;;;36.05;20.85;;;1.40;75.60;;;;;;2055415;28;20038;-71
2022/03/20 05:00:12;;;;;;;35.47;20.98;;;1.40;75.20;;;;;;2062488;28;20022;-72
2022/03/20 05:01:13;;;;;;;34.33;21.17;;;1.40;75.10;;;;;;2053256;28;20069;-70
2022/03/20 05:02:14;;;;;;;35.10;20.80;;;1.40;75.30;;;;;;2054558;28;20110;-70
2022/03/20 05:03:14;;;;;;;33.70;21.02;;;1.40;75.30;;;;;;2054584;28;20031;-70
2022/03/20 05:04:15;;;;;;;38.22;21.05;;;1.40;75.20;;;;;;2054578;28;20084;-71
2022/03/20 05:05:16;;;;;;;36.08;20.65;;;1.40;75.00;;;;;;2054989;28;20053;-71
2022/03/20 05:06:17;;;;;;;35.65;21.25;;;1.40;75.00;;;;;;2054709;28;20026;-70
2022/03/20 05:07:18;;;;;;;38.08;21.70;;;1.50;75.10;;;;;;2054838;28;20087;-71
2022/03/20 05:08:18;;;;;;;35.25;20.70;;;1.50;74.80;;;;;;2054893;28;20110;-70
2022/03/20 05:13:21;;;;;;;35.50;20.52;;;1.50;75.00;;;;;;2055661;28;20505;-70
2022/03/20 05:14:21;;;;;;;35.22;20.40;;;1.50;74.80;;;;;;2054954;28;20414;-70
2022/03/20 05:15:22;;;;;;;35.75;20.45;;;1.50;75.00;;;;;;2054731;28;20113;-70
2022/03/20 05:16:22;;;;;;;36.92;20.88;;;1.50;75.40;;;;;;2063237;28;20034;-70
2022/03/20 05:17:23;;;;;;;37.47;21.13;;;1.50;75.90;;;;;;2062983;28;20026;-72
2022/03/20 05:18:24;;;;;;;34.80;20.25;;;1.50;75.70;;;;;;2055525;28;20037;-70
2022/03/20 05:19:25;;;;;;;31.13;19.40;;;1.50;75.90;;;;;;2054763;28;20035;-70
2022/03/20 05:20:26;;;;;;;34.33;19.77;;;1.50;75.60;;;;;;2054894;28;20035;-71
2022/03/20 05:21:26;;;;;;;32.00;19.50;;;1.50;75.60;;;;;;2054888;28;20509;-70
2022/03/20 05:22:27;;;;;;;34.63;20.00;;;1.50;75.20;;;;;;2055476;28;20035;-70
2022/03/20 05:23:29;;;;;;;34.17;20.45;;;1.50;74.90;;;;;;2054911;28;20114;-70
2022/03/20 05:24:30;;;;;;;33.65;20.23;;;1.60;75.50;;;;;;2054987;28;20490;-71
2022/03/20 05:25:30;;;;;;;35.88;20.48;;;1.60;74.40;;;;;;2055632;28;20050;-70
2022/03/20 05:26:31;;;;;;;34.72;20.52;;;1.60;73.90;;;;;;2054602;28;20472;-71
2022/03/20 05:27:31;;;;;;;36.80;21.20;;;1.60;73.70;;;;;;2054606;28;20094;-72
2022/03/20 05:28:32;;;;;;;35.65;20.40;;;1.70;73.40;;;;;;2055500;28;20027;-71
2022/03/20 05:29:33;;;;;;;34.05;20.73;;;1.70;73.20;;;;;;2054607;28;20031;-71
2022/03/20 05:30:34;;;;;;;34.17;21.33;;;1.80;73.40;;;;;;2054280;28;20141;-69
2022/03/20 05:31:35;;;;;;;36.45;22.50;;;1.80;73.90;;;;;;2054427;28;20089;-70
2022/03/20 05:32:38;;;;;;;34.35;21.73;;;1.80;73.40;;;;;;2054641;28;20099;-70
2022/03/20 05:33:38;;;;;;;34.22;20.85;;;1.80;73.40;;;;;;2054465;28;20038;-71
2022/03/20 05:34:39;;;;;;;34.72;21.23;;;1.80;73.20;;;;;;2054246;28;20030;-70
2022/03/20 05:35:42;;;;;;;36.53;21.65;;;1.90;73.20;;;;;;2046560;28;20023;-71
2022/03/20 05:36:43;;;;;;;39.70;22.30;;;1.90;72.80;;;;;;2054358;28;20574;-70
2022/03/20 05:37:45;;;;;;;39.63;22.45;;;1.90;72.40;;;;;;2054446;28;20045;-71
2022/03/20 05:38:45;;;;;;;38.10;22.23;;;2.00;72.30;;;;;;2054953;28;20031;-70